createdAt,value
2018-10-11T00:10:35.632Z,98028.22
2018-10-11T00:31:15.624Z,98045.33
2018-10-11T00:51:54.889Z,98018.05
2018-10-11T01:12:43.630Z,98000.14
2018-10-11T01:33:23.559Z,97989.77
2018-10-11T01:54:04.975Z,97981.75
2018-10-11T02:14:42.089Z,97953.33
2018-10-11T02:35:24.430Z,97953.89
2018-10-11T02:56:08.992Z,97968.70
2018-10-11T03:16:50.947Z,97982.96
2018-10-11T03:37:31.443Z,97978.30
2018-10-11T03:58:06.410Z,97960.47
2018-10-11T04:18:50.891Z,97977.97
2018-10-11T04:39:31.401Z,97992.45
2018-10-11T05:00:10.676Z,98010.67
2018-10-11T05:20:49.617Z,98005.48
2018-10-11T05:41:28.879Z,98027.66
2018-10-11T06:02:05.077Z,98019.78
2018-10-11T06:22:50.113Z,98048.67
2018-10-11T06:43:32.822Z,98071.47
2018-10-11T07:04:15.159Z,98092.98
2018-10-11T07:24:52.277Z,98098.01
2018-10-11T07:45:30.620Z,98121.63
2018-10-11T08:06:12.962Z,98104.47
2018-10-11T08:26:52.554Z,98121.25
2018-10-11T08:47:32.744Z,98119.17
2018-10-11T09:08:10.113Z,98097.04
2018-10-11T09:28:52.452Z,98096.17
2018-10-11T09:49:32.621Z,98100.66
2018-10-11T10:10:13.468Z,98114.50
2018-10-11T10:30:57.957Z,98121.38
2018-10-11T10:51:37.226Z,98116.29
2018-10-11T11:12:13.418Z,98102.50
2018-10-11T11:32:57.908Z,98068.42
2018-10-11T11:53:35.023Z,98040.45
2018-10-11T12:14:12.720Z,98033.61
2018-10-11T12:34:53.552Z,98024.97
2018-10-11T12:55:32.817Z,98015.48
2018-10-11T13:16:09.935Z,98010.47
2018-10-11T13:36:45.204Z,98029.85
2018-10-11T13:57:26.847Z,98035.19
2018-10-11T14:18:09.284Z,98042.94
2018-10-11T14:38:46.073Z,98027.85
2018-10-11T14:59:29.069Z,98033.18
2018-10-11T15:20:08.600Z,98037.09
2018-10-11T15:40:49.108Z,98031.53
2018-10-11T16:01:28.591Z,98039.41
2018-10-11T16:22:08.548Z,98039.74
2018-10-11T16:42:43.818Z,98079.32
2018-10-11T17:03:23.084Z,98097.14
2018-10-11T17:24:04.620Z,98118.73
2018-10-11T17:44:44.058Z,98128.22
2018-10-11T18:05:20.886Z,98148.55
2018-10-11T18:25:57.086Z,98171.94
2018-10-11T18:46:39.427Z,98196.86
2018-10-11T19:07:20.833Z,98190.90
2018-10-11T19:28:01.329Z,98207.83
2018-10-11T19:48:43.983Z,98211.87
2018-10-11T20:09:23.547Z,98212.95
2018-10-11T20:30:05.114Z,98242.91
2018-10-11T20:50:44.234Z,98260.75
2018-10-11T21:11:23.663Z,98270.73
2018-10-11T21:32:00.614Z,98283.22
2018-10-11T21:52:39.941Z,98290.64
2018-10-11T22:13:27.134Z,98294.47
2018-10-11T22:34:05.477Z,98321.41
2018-10-11T22:54:45.664Z,98336.16
2018-10-11T23:15:26.412Z,98381.31
2018-10-11T23:36:06.349Z,98403.05
2018-10-11T23:56:47.762Z,98403.66
